If you wish to contribute or participate in the discussions about articles you are invited to join SKYbrary as a registered user

 Actions

Luang Prabang International Airport

From SKYbrary Wiki

VLLB
Airport
ICAO: VLLB – IATA: LPQ
Summary
Name Luang Prabang International Airport
Region Asia and Pacific
Territory Laos LA.gif
Location Luang Prabang, Louangphrabang
Serving Luang Prabang
Elevation 291.084 m
955 ft
955 ft291.084 m
Coordinates 19° 53' 49.99" N, 102° 9' 38.99" E
Runways
Designator Length Width Surface ROPS
6/24 2200 m7,217.848 ft
45 m147.638 ft
ASP /


METAR
Observation VLLB 160400Z 36004KT 9999 SCT018 28/24 Q1011 NOSIG
Station Luang-Prabang
Date/Time 16 September 2019 04:00:00
Wind direction 360°
Wind speed 04 kts
Lowest cloud amount scattered clouds
Temperature 28°C
Dew point 24°C
Humidity 78%
QNH 1011 hPa
Weather condition n/a

International airport serving Luang Prabang, Laos.

Climatology

Tropical savannah climate (Köppen climate classification Aw)

Maps

Terrain

Loading map...

Airport Layout

Loading map...


Accidents & Serious Incidents at or in vicinity of VLLB

None on SKYbrary